PWSweather.com
Personal Weather Stations
Station Observations
SELKIRK1
Ontario, Selkirk, ON N0A 1P0

OntarioSelkirk, ON N0A 1P0

Lat: 42.8083652, Lon: -79.94971040000001

Elevation: 583

Station Type: Acurite 5 in 1

http://gavinsurf.com

High Low Average
Temperature 71.4°F21.9°C 59.2°F15.1°C 64.6°F18.1°C
Dew Point 64.2°F17.9°C 57.6°F14.2°C 60.2°F15.7°C
Winds 5.8 mph 9.3 kmh Calm Calm 3.0 mph E4.8 kmh E
Wind Gusts 10.4 mph16.7 kmh -- 4.0 mph6.4 kmh
Humidity 97% 74% 86%
Pressure 31.83 in1077.9 mb 31.60 in1070.1 mb -
Precipitation 0.00 in0.0 mm - -
Hour Temp Dew Point Humidity Winds Wind Gusts Pressure Precip Precip Rate Daily Precip Total
12:00 AM 67.5°F19.7°C 65.1°F18.4°C 92% 1.2 mph ENE1.9 kmh ENE 1.2 mph1.9 kmh 31.28 in1059.3 mb - 0.00 in0.0 mm 0.00 in0.0 mm
12:10 AM 67.1°F19.5°C 64.7°F18.2°C 92% 1.2 mph NE1.9 kmh NE 1.2 mph1.9 kmh 31.31 in1060.3 mb - 0.00 in0.0 mm 0.00 in0.0 mm
12:15 AM 66.9°F19.4°C 64.5°F18.1°C 92% 1.2 mph ENE1.9 kmh ENE 2.3 mph3.7 kmh 31.31 in1060.3 mb - 0.00 in0.0 mm 0.00 in0.0 mm
12:20 AM 66.7°F19.3°C 64.6°F18.1°C 93% 1.2 mph ENE1.9 kmh ENE 1.2 mph1.9 kmh 31.38 in1062.6 mb - 0.00 in0.0 mm 0.00 in0.0 mm
12:25 AM 66.6°F19.2°C 64.5°F18.1°C 93% 1.2 mph ENE1.9 kmh ENE 1.2 mph1.9 kmh 31.38 in1062.6 mb - 0.00 in0.0 mm 0.00 in0.0 mm
12:30 AM 66.4°F19.1°C 64.3°F17.9°C 93% 2.3 mph NE3.7 kmh NE 2.3 mph3.7 kmh 31.42 in1064.0 mb - 0.00 in0.0 mm 0.00 in0.0 mm
12:35 AM 66.2°F19.0°C 64.4°F18.0°C 94% 1.2 mph ENE1.9 kmh ENE 1.2 mph1.9 kmh 31.42 in1064.0 mb - 0.00 in0.0 mm 0.00 in0.0 mm
12:40 AM 66.0°F18.9°C 64.2°F17.9°C 94% 1.2 mph NE1.9 kmh NE 2.3 mph3.7 kmh 31.46 in1065.4 mb - 0.00 in0.0 mm 0.00 in0.0 mm
12:45 AM 66.0°F18.9°C 64.2°F17.9°C 94% 2.3 mph NE3.7 kmh NE 2.3 mph3.7 kmh 31.51 in1067.1 mb - 0.00 in0.0 mm 0.00 in0.0 mm
12:50 AM 66.0°F18.9°C 64.2°F17.9°C 94% 2.3 mph NE3.7 kmh NE 2.3 mph3.7 kmh 31.51 in1067.1 mb - 0.00 in0.0 mm 0.00 in0.0 mm
12:55 AM 66.0°F18.9°C 64.2°F17.9°C 94% 2.3 mph NE3.7 kmh NE 3.5 mph5.6 kmh 31.60 in1070.1 mb - 0.00 in0.0 mm 0.00 in0.0 mm
01:00 AM 66.0°F18.9°C 64.2°F17.9°C 94% 2.3 mph NE3.7 kmh NE 3.5 mph5.6 kmh 31.60 in1070.1 mb - 0.00 in0.0 mm 0.00 in0.0 mm
01:10 AM 65.9°F18.8°C 64.1°F17.8°C 94% 3.5 mph NE5.6 kmh NE 3.5 mph5.6 kmh 31.66 in1072.1 mb - 0.00 in0.0 mm 0.00 in0.0 mm
01:15 AM 65.9°F18.8°C 64.1°F17.8°C 94% 2.3 mph NE3.7 kmh NE 4.6 mph7.4 kmh 31.66 in1072.1 mb - 0.00 in0.0 mm 0.00 in0.0 mm
01:20 AM 65.9°F18.8°C 64.1°F17.8°C 94% 3.5 mph NNE5.6 kmh NNE 4.6 mph7.4 kmh 31.69 in1073.1 mb - 0.00 in0.0 mm 0.00 in0.0 mm
01:25 AM 65.9°F18.8°C 64.1°F17.8°C 94% 3.5 mph NNE5.6 kmh NNE 4.6 mph7.4 kmh 31.69 in1073.1 mb - 0.00 in0.0 mm 0.00 in0.0 mm
01:30 AM 65.7°F18.7°C 63.9°F17.7°C 94% 2.3 mph NNE3.7 kmh NNE 3.5 mph5.6 kmh 31.75 in1075.2 mb - 0.00 in0.0 mm 0.00 in0.0 mm
01:35 AM 65.7°F18.7°C 63.9°F17.7°C 94% 3.5 mph NNE5.6 kmh NNE 4.6 mph7.4 kmh 31.75 in1075.2 mb - 0.00 in0.0 mm 0.00 in0.0 mm
01:40 AM 65.5°F18.6°C 63.7°F17.6°C 94% 3.5 mph NE5.6 kmh NE 4.6 mph7.4 kmh 31.80 in1076.9 mb - 0.00 in0.0 mm 0.00 in0.0 mm
01:45 AM 65.5°F18.6°C 63.7°F17.6°C 94% 4.6 mph NNE7.4 kmh NNE 6.9 mph11.1 kmh 31.83 in1077.9 mb - 0.00 in0.0 mm 0.00 in0.0 mm
01:50 AM 65.3°F18.5°C 63.2°F17.3°C 93% 4.6 mph NNE7.4 kmh NNE 5.8 mph9.3 kmh 31.83 in1077.9 mb - 0.00 in0.0 mm 0.00 in0.0 mm
01:55 AM 65.3°F18.5°C 62.9°F17.2°C 92% 5.8 mph NE9.3 kmh NE 5.8 mph9.3 kmh 31.83 in1077.9 mb - 0.00 in0.0 mm 0.00 in0.0 mm
02:00 AM 65.3°F18.5°C 62.6°F17.0°C 91% 5.8 mph N9.3 kmh N 6.9 mph11.1 kmh 31.83 in1077.9 mb - 0.00 in0.0 mm 0.00 in0.0 mm
02:10 AM 65.1°F18.4°C 62.4°F16.9°C 91% 5.8 mph NE9.3 kmh NE 9.2 mph14.8 kmh 31.83 in1077.9 mb - 0.00 in0.0 mm 0.00 in0.0 mm
02:15 AM 65.0°F18.3°C 62.3°F16.8°C 91% 5.8 mph NNE9.3 kmh NNE 5.8 mph9.3 kmh 31.83 in1077.9 mb - 0.00 in0.0 mm 0.00 in0.0 mm
02:20 AM 64.8°F18.2°C 62.1°F16.7°C 91% 4.6 mph NE7.4 kmh NE 5.8 mph9.3 kmh 31.83 in1077.9 mb - 0.00 in0.0 mm 0.00 in0.0 mm
02:25 AM 64.7°F18.2°C 62.1°F16.7°C 91% 3.5 mph NE5.6 kmh NE 3.5 mph5.6 kmh 31.83 in1077.9 mb - 0.00 in0.0 mm 0.00 in0.0 mm
02:30 AM 64.5°F18.1°C 61.8°F16.6°C 91% 3.5 mph NE5.6 kmh NE 6.9 mph11.1 kmh 31.83 in1077.9 mb - 0.00 in0.0 mm 0.00 in0.0 mm
02:35 AM 64.4°F18.0°C 61.7°F16.5°C 91% 4.6 mph NNE7.4 kmh NNE 4.6 mph7.4 kmh 31.83 in1077.9 mb - 0.00 in0.0 mm 0.00 in0.0 mm
02:40 AM 64.4°F18.0°C 61.7°F16.5°C 91% 3.5 mph NE5.6 kmh NE 4.6 mph7.4 kmh 31.83 in1077.9 mb - 0.00 in0.0 mm 0.00 in0.0 mm
02:45 AM 64.2°F17.9°C 61.5°F16.4°C 91% 4.6 mph N7.4 kmh N 5.8 mph9.3 kmh 31.83 in1077.9 mb - 0.00 in0.0 mm 0.00 in0.0 mm
02:50 AM 64.2°F17.9°C 61.5°F16.4°C 91% 4.6 mph NE7.4 kmh NE 4.6 mph7.4 kmh 31.83 in1077.9 mb - 0.00 in0.0 mm 0.00 in0.0 mm
02:55 AM 64.2°F17.9°C 61.5°F16.4°C 91% 3.5 mph ENE5.6 kmh ENE 3.5 mph5.6 kmh 31.83 in1077.9 mb - 0.00 in0.0 mm 0.00 in0.0 mm
03:00 AM 64.1°F17.8°C 61.4°F16.3°C 91% 2.3 mph ENE3.7 kmh ENE 3.5 mph5.6 kmh 31.83 in1077.9 mb - 0.00 in0.0 mm 0.00 in0.0 mm
03:10 AM 63.9°F17.7°C 61.2°F16.2°C 91% 3.5 mph NE5.6 kmh NE 4.6 mph7.4 kmh 31.83 in1077.9 mb - 0.00 in0.0 mm 0.00 in0.0 mm
03:15 AM 63.8°F17.7°C 61.1°F16.2°C 91% 3.5 mph ENE5.6 kmh ENE 3.5 mph5.6 kmh 31.83 in1077.9 mb - 0.00 in0.0 mm 0.00 in0.0 mm
03:20 AM 63.7°F17.6°C 61.0°F16.1°C 91% 3.5 mph NE5.6 kmh NE 3.5 mph5.6 kmh 31.83 in1077.9 mb - 0.00 in0.0 mm 0.00 in0.0 mm
03:25 AM 63.7°F17.6°C 61.0°F16.1°C 91% 2.3 mph NE3.7 kmh NE 2.3 mph3.7 kmh 31.83 in1077.9 mb - 0.00 in0.0 mm 0.00 in0.0 mm
03:30 AM 63.5°F17.5°C 60.8°F16.0°C 91% 2.3 mph ENE3.7 kmh ENE 2.3 mph3.7 kmh 31.83 in1077.9 mb - 0.00 in0.0 mm 0.00 in0.0 mm
03:35 AM 63.3°F17.4°C 60.6°F15.9°C 91% 2.3 mph NE3.7 kmh NE 2.3 mph3.7 kmh 31.83 in1077.9 mb - 0.00 in0.0 mm 0.00 in0.0 mm
03:40 AM 63.3°F17.4°C 60.9°F16.1°C 92% 2.3 mph NE3.7 kmh NE 3.5 mph5.6 kmh 31.83 in1077.9 mb - 0.00 in0.0 mm 0.00 in0.0 mm
03:45 AM 63.2°F17.3°C 60.8°F16.0°C 92% 2.3 mph E3.7 kmh E 3.5 mph5.6 kmh 31.83 in1077.9 mb - 0.00 in0.0 mm 0.00 in0.0 mm
03:50 AM 63.2°F17.3°C 60.8°F16.0°C 92% 2.3 mph E3.7 kmh E 3.5 mph5.6 kmh 31.83 in1077.9 mb - 0.00 in0.0 mm 0.00 in0.0 mm
03:55 AM 63.0°F17.2°C 60.7°F15.9°C 92% 2.3 mph ENE3.7 kmh ENE 3.5 mph5.6 kmh 31.83 in1077.9 mb - 0.00 in0.0 mm 0.00 in0.0 mm
04:00 AM 63.0°F17.2°C 60.6°F15.9°C 92% 2.3 mph NE3.7 kmh NE 3.5 mph5.6 kmh 31.83 in1077.9 mb - 0.00 in0.0 mm 0.00 in0.0 mm
04:10 AM 62.6°F17.0°C 59.9°F15.5°C 91% 3.5 mph E5.6 kmh E 4.6 mph7.4 kmh 31.83 in1077.9 mb - 0.00 in0.0 mm 0.00 in0.0 mm
04:15 AM 62.4°F16.9°C 59.7°F15.4°C 91% 3.5 mph E5.6 kmh E 4.6 mph7.4 kmh 31.83 in1077.9 mb - 0.00 in0.0 mm 0.00 in0.0 mm
04:20 AM 62.3°F16.8°C 59.6°F15.3°C 91% 3.5 mph NE5.6 kmh NE 3.5 mph5.6 kmh 31.83 in1077.9 mb - 0.00 in0.0 mm 0.00 in0.0 mm
04:25 AM 62.1°F16.7°C 59.4°F15.2°C 91% 4.6 mph E7.4 kmh E 4.6 mph7.4 kmh 31.83 in1077.9 mb - 0.00 in0.0 mm 0.00 in0.0 mm
04:30 AM 62.1°F16.7°C 59.4°F15.2°C 91% 3.5 mph E5.6 kmh E 4.6 mph7.4 kmh 31.83 in1077.9 mb - 0.00 in0.0 mm 0.00 in0.0 mm
04:35 AM 62.1°F16.7°C 59.4°F15.2°C 91% 3.5 mph ENE5.6 kmh ENE 3.5 mph5.6 kmh 31.83 in1077.9 mb - 0.00 in0.0 mm 0.00 in0.0 mm
04:40 AM 62.1°F16.7°C 59.4°F15.2°C 91% 4.6 mph E7.4 kmh E 4.6 mph7.4 kmh 31.83 in1077.9 mb - 0.00 in0.0 mm 0.00 in0.0 mm
04:45 AM 62.1°F16.7°C 59.4°F15.2°C 91% 3.5 mph NE5.6 kmh NE 4.6 mph7.4 kmh 31.83 in1077.9 mb - 0.00 in0.0 mm 0.00 in0.0 mm
04:50 AM 62.1°F16.7°C 59.4°F15.2°C 91% 2.3 mph ENE3.7 kmh ENE 3.5 mph5.6 kmh 31.83 in1077.9 mb - 0.00 in0.0 mm 0.00 in0.0 mm
04:55 AM 62.1°F16.7°C 59.4°F15.2°C 91% 3.5 mph E5.6 kmh E 3.5 mph5.6 kmh 31.83 in1077.9 mb - 0.00 in0.0 mm 0.00 in0.0 mm
05:00 AM 61.9°F16.6°C 59.2°F15.1°C 91% 4.6 mph E7.4 kmh E 5.8 mph9.3 kmh 31.83 in1077.9 mb - 0.00 in0.0 mm 0.00 in0.0 mm
05:10 AM 61.7°F16.5°C 59.0°F15.0°C 91% 4.6 mph ENE7.4 kmh ENE 4.6 mph7.4 kmh 31.83 in1077.9 mb - 0.00 in0.0 mm 0.00 in0.0 mm
05:15 AM 61.7°F16.5°C 59.0°F15.0°C 91% 3.5 mph NE5.6 kmh NE 3.5 mph5.6 kmh 31.83 in1077.9 mb - 0.00 in0.0 mm 0.00 in0.0 mm
05:20 AM 61.7°F16.5°C 59.0°F15.0°C 91% 3.5 mph NE5.6 kmh NE 4.6 mph7.4 kmh 31.83 in1077.9 mb - 0.00 in0.0 mm 0.00 in0.0 mm
05:25 AM 61.5°F16.4°C 59.1°F15.1°C 92% 3.5 mph NE5.6 kmh NE 4.6 mph7.4 kmh 31.83 in1077.9 mb - 0.00 in0.0 mm 0.00 in0.0 mm
05:30 AM 61.4°F16.3°C 59.0°F15.0°C 92% 5.8 mph NE9.3 kmh NE 5.8 mph9.3 kmh 31.83 in1077.9 mb - 0.00 in0.0 mm 0.00 in0.0 mm
05:35 AM 61.2°F16.2°C 58.5°F14.7°C 91% 3.5 mph ENE5.6 kmh ENE 5.8 mph9.3 kmh 31.83 in1077.9 mb - 0.00 in0.0 mm 0.00 in0.0 mm
05:40 AM 60.8°F16.0°C 58.1°F14.5°C 91% 3.5 mph ENE5.6 kmh ENE 4.6 mph7.4 kmh 31.83 in1077.9 mb - 0.00 in0.0 mm 0.00 in0.0 mm
05:45 AM 60.7°F15.9°C 58.1°F14.5°C 91% 3.5 mph NE5.6 kmh NE 4.6 mph7.4 kmh 31.83 in1077.9 mb - 0.00 in0.0 mm 0.00 in0.0 mm
05:50 AM 60.6°F15.9°C 57.9°F14.4°C 91% 4.6 mph NE7.4 kmh NE 6.9 mph11.1 kmh 31.83 in1077.9 mb - 0.00 in0.0 mm 0.00 in0.0 mm
05:55 AM 60.6°F15.9°C 57.9°F14.4°C 91% 3.5 mph NE5.6 kmh NE 5.8 mph9.3 kmh 31.83 in1077.9 mb - 0.00 in0.0 mm 0.00 in0.0 mm
06:00 AM 60.6°F15.9°C 57.9°F14.4°C 91% 4.6 mph NE7.4 kmh NE 3.5 mph5.6 kmh 31.83 in1077.9 mb - 0.00 in0.0 mm 0.00 in0.0 mm
06:10 AM 60.5°F15.8°C 57.8°F14.3°C 91% 3.5 mph ENE5.6 kmh ENE 4.6 mph7.4 kmh 31.83 in1077.9 mb - 0.00 in0.0 mm 0.00 in0.0 mm
06:15 AM 60.5°F15.8°C 57.8°F14.3°C 91% 4.6 mph NE7.4 kmh NE 8.1 mph13.0 kmh 31.83 in1077.9 mb - 0.00 in0.0 mm 0.00 in0.0 mm
06:20 AM 60.4°F15.8°C 57.7°F14.3°C 91% 5.8 mph NE9.3 kmh NE 10.4 mph16.7 kmh 31.83 in1077.9 mb - 0.00 in0.0 mm 0.00 in0.0 mm
06:25 AM 60.3°F15.7°C 57.6°F14.2°C 91% 3.5 mph NE5.6 kmh NE 3.5 mph5.6 kmh 31.83 in1077.9 mb - 0.00 in0.0 mm 0.00 in0.0 mm
06:30 AM 60.3°F15.7°C 57.6°F14.2°C 91% 3.5 mph NE5.6 kmh NE 5.8 mph9.3 kmh 31.83 in1077.9 mb - 0.00 in0.0 mm 0.00 in0.0 mm
06:35 AM 60.3°F15.7°C 57.6°F14.2°C 91% 3.5 mph NE5.6 kmh NE 3.5 mph5.6 kmh 31.83 in1077.9 mb - 0.00 in0.0 mm 0.00 in0.0 mm
06:40 AM 60.3°F15.7°C 57.6°F14.2°C 91% 3.5 mph ENE5.6 kmh ENE 5.8 mph9.3 kmh 31.83 in1077.9 mb - 0.00 in0.0 mm 0.00 in0.0 mm
06:45 AM 60.3°F15.7°C 57.6°F14.2°C 91% 3.5 mph NE5.6 kmh NE 5.8 mph9.3 kmh 31.83 in1077.9 mb - 0.00 in0.0 mm 0.00 in0.0 mm
06:50 AM 60.3°F15.7°C 57.6°F14.2°C 91% 3.5 mph NE5.6 kmh NE 3.5 mph5.6 kmh 31.83 in1077.9 mb - 0.00 in0.0 mm 0.00 in0.0 mm
06:55 AM 60.3°F15.7°C 57.6°F14.2°C 91% 3.5 mph NE5.6 kmh NE 4.6 mph7.4 kmh 31.83 in1077.9 mb - 0.00 in0.0 mm 0.00 in0.0 mm
07:00 AM 60.5°F15.8°C 57.8°F14.3°C 91% 3.5 mph NE5.6 kmh NE 4.6 mph7.4 kmh 31.83 in1077.9 mb - 0.00 in0.0 mm 0.00 in0.0 mm
07:10 AM 60.5°F15.8°C 57.8°F14.3°C 91% 4.6 mph NNE7.4 kmh NNE 5.8 mph9.3 kmh 31.83 in1077.9 mb - 0.00 in0.0 mm 0.00 in0.0 mm
07:15 AM 60.5°F15.8°C 57.8°F14.3°C 91% 3.5 mph NE5.6 kmh NE 5.8 mph9.3 kmh 31.83 in1077.9 mb - 0.00 in0.0 mm 0.00 in0.0 mm
07:20 AM 60.5°F15.8°C 57.8°F14.3°C 91% 4.6 mph NE7.4 kmh NE 5.8 mph9.3 kmh 31.83 in1077.9 mb - 0.00 in0.0 mm 0.00 in0.0 mm
07:25 AM 60.5°F15.8°C 57.8°F14.3°C 91% 3.5 mph NE5.6 kmh NE 3.5 mph5.6 kmh 31.83 in1077.9 mb - 0.00 in0.0 mm 0.00 in0.0 mm
07:30 AM 60.5°F15.8°C 57.9°F14.4°C 91% 4.6 mph NE7.4 kmh NE 5.8 mph9.3 kmh 31.83 in1077.9 mb - 0.00 in0.0 mm 0.00 in0.0 mm
07:35 AM 60.6°F15.9°C 57.6°F14.2°C 90% 5.8 mph NNE9.3 kmh NNE 6.9 mph11.1 kmh 31.83 in1077.9 mb - 0.00 in0.0 mm 0.00 in0.0 mm
07:40 AM 60.6°F15.9°C 57.6°F14.2°C 90% 4.6 mph NE7.4 kmh NE 5.8 mph9.3 kmh 31.83 in1077.9 mb - 0.00 in0.0 mm 0.00 in0.0 mm
07:45 AM 60.6°F15.9°C 57.6°F14.2°C 90% 3.5 mph NNE5.6 kmh NNE 5.8 mph9.3 kmh 31.83 in1077.9 mb - 0.00 in0.0 mm 0.00 in0.0 mm
07:50 AM 60.8°F16.0°C 57.8°F14.3°C 90% 3.5 mph ENE5.6 kmh ENE 10.4 mph16.7 kmh 31.83 in1077.9 mb - 0.00 in0.0 mm 0.00 in0.0 mm
07:55 AM 60.8°F16.0°C 57.9°F14.4°C 90% 3.5 mph NE5.6 kmh NE 4.6 mph7.4 kmh 31.83 in1077.9 mb - 0.00 in0.0 mm 0.00 in0.0 mm
08:00 AM 61.0°F16.1°C 58.0°F14.4°C 90% 3.5 mph E5.6 kmh E 4.6 mph7.4 kmh 31.83 in1077.9 mb - 0.00 in0.0 mm 0.00 in0.0 mm
08:10 AM 61.2°F16.2°C 58.2°F14.6°C 90% 4.6 mph E7.4 kmh E 5.8 mph9.3 kmh 31.83 in1077.9 mb - 0.00 in0.0 mm 0.00 in0.0 mm
08:15 AM 61.2°F16.2°C 58.2°F14.6°C 90% 3.5 mph NE5.6 kmh NE 4.6 mph7.4 kmh 31.83 in1077.9 mb - 0.00 in0.0 mm 0.00 in0.0 mm
08:20 AM 61.4°F16.3°C 58.4°F14.7°C 90% 3.5 mph NE5.6 kmh NE 4.6 mph7.4 kmh 31.83 in1077.9 mb - 0.00 in0.0 mm 0.00 in0.0 mm
08:25 AM 61.5°F16.4°C 58.5°F14.7°C 90% 3.5 mph NE5.6 kmh NE 5.8 mph9.3 kmh 31.83 in1077.9 mb - 0.00 in0.0 mm 0.00 in0.0 mm
08:30 AM 61.5°F16.4°C 58.5°F14.7°C 90% 4.6 mph E7.4 kmh E 5.8 mph9.3 kmh 31.83 in1077.9 mb - 0.00 in0.0 mm 0.00 in0.0 mm
08:35 AM 61.5°F16.4°C 58.5°F14.7°C 90% 3.5 mph E5.6 kmh E 4.6 mph7.4 kmh 31.83 in1077.9 mb - 0.00 in0.0 mm 0.00 in0.0 mm
08:40 AM 61.5°F16.4°C 58.5°F14.7°C 90% 4.6 mph ENE7.4 kmh ENE 4.6 mph7.4 kmh 31.83 in1077.9 mb - 0.00 in0.0 mm 0.00 in0.0 mm
08:45 AM 61.4°F16.3°C 58.4°F14.7°C 90% 4.6 mph E7.4 kmh E 5.8 mph9.3 kmh 31.83 in1077.9 mb - 0.00 in0.0 mm 0.00 in0.0 mm
08:50 AM 61.2°F16.2°C 58.3°F14.6°C 90% 3.5 mph NE5.6 kmh NE 4.6 mph7.4 kmh 31.83 in1077.9 mb - 0.00 in0.0 mm 0.00 in0.0 mm
08:55 AM 61.4°F16.3°C 58.4°F14.7°C 90% 4.6 mph NE7.4 kmh NE 4.6 mph7.4 kmh 31.83 in1077.9 mb - 0.00 in0.0 mm 0.00 in0.0 mm
09:00 AM 61.3°F16.3°C 58.4°F14.7°C 90% 3.5 mph NE5.6 kmh NE 4.6 mph7.4 kmh 31.83 in1077.9 mb - 0.00 in0.0 mm 0.00 in0.0 mm
09:10 AM 61.9°F16.6°C 58.9°F14.9°C 90% 4.6 mph E7.4 kmh E 4.6 mph7.4 kmh 31.83 in1077.9 mb - 0.00 in0.0 mm 0.00 in0.0 mm
09:15 AM 61.9°F16.6°C 58.6°F14.8°C 89% 5.8 mph ENE9.3 kmh ENE 6.9 mph11.1 kmh 31.83 in1077.9 mb - 0.00 in0.0 mm 0.00 in0.0 mm
09:20 AM 62.1°F16.7°C 58.8°F14.9°C 89% 4.6 mph E7.4 kmh E 6.9 mph11.1 kmh 31.83 in1077.9 mb - 0.00 in0.0 mm 0.00 in0.0 mm
09:25 AM 61.8°F16.6°C 58.2°F14.6°C 88% 5.8 mph NE9.3 kmh NE 6.9 mph11.1 kmh 31.83 in1077.9 mb - 0.00 in0.0 mm 0.00 in0.0 mm
09:30 AM 61.8°F16.6°C 58.5°F14.7°C 89% 4.6 mph ENE7.4 kmh ENE 4.6 mph7.4 kmh 31.83 in1077.9 mb - 0.00 in0.0 mm 0.00 in0.0 mm
09:35 AM 61.5°F16.4°C 58.3°F14.6°C 89% 3.5 mph ENE5.6 kmh ENE 3.5 mph5.6 kmh 31.83 in1077.9 mb - 0.00 in0.0 mm 0.00 in0.0 mm
09:40 AM 61.7°F16.5°C 58.5°F14.7°C 89% 4.6 mph E7.4 kmh E 4.6 mph7.4 kmh 31.83 in1077.9 mb - 0.00 in0.0 mm 0.00 in0.0 mm
09:45 AM 61.5°F16.4°C 58.2°F14.6°C 89% 4.6 mph E7.4 kmh E 5.8 mph9.3 kmh 31.83 in1077.9 mb - 0.00 in0.0 mm 0.00 in0.0 mm
09:50 AM 61.8°F16.6°C 58.5°F14.7°C 89% 3.5 mph NE5.6 kmh NE 4.6 mph7.4 kmh 31.83 in1077.9 mb - 0.00 in0.0 mm 0.00 in0.0 mm
09:55 AM 61.7°F16.5°C 58.4°F14.7°C 89% 3.5 mph NE5.6 kmh NE 5.8 mph9.3 kmh 31.83 in1077.9 mb - 0.00 in0.0 mm 0.00 in0.0 mm
10:00 AM 61.4°F16.3°C 57.8°F14.3°C 88% 4.6 mph NE7.4 kmh NE 5.8 mph9.3 kmh 31.83 in1077.9 mb - 0.00 in0.0 mm 0.00 in0.0 mm
10:10 AM 61.4°F16.3°C 57.8°F14.3°C 88% 3.5 mph ENE5.6 kmh ENE 3.5 mph5.6 kmh 31.83 in1077.9 mb - 0.00 in0.0 mm 0.00 in0.0 mm
10:15 AM 61.4°F16.3°C 57.8°F14.3°C 88% 4.6 mph NNE7.4 kmh NNE 5.8 mph9.3 kmh 31.83 in1077.9 mb - 0.00 in0.0 mm 0.00 in0.0 mm
10:20 AM 61.5°F16.4°C 58.2°F14.6°C 89% 3.5 mph E5.6 kmh E 5.8 mph9.3 kmh 31.83 in1077.9 mb - 0.00 in0.0 mm 0.00 in0.0 mm
10:25 AM 61.4°F16.3°C 58.1°F14.5°C 89% 4.6 mph E7.4 kmh E 4.6 mph7.4 kmh 31.83 in1077.9 mb - 0.00 in0.0 mm 0.00 in0.0 mm
10:30 AM 61.5°F16.4°C 57.9°F14.4°C 88% 3.5 mph E5.6 kmh E 3.5 mph5.6 kmh 31.83 in1077.9 mb - 0.00 in0.0 mm 0.00 in0.0 mm
10:35 AM 61.6°F16.4°C 58.1°F14.5°C 88% 2.3 mph NE3.7 kmh NE 3.5 mph5.6 kmh 31.83 in1077.9 mb - 0.00 in0.0 mm 0.00 in0.0 mm
10:40 AM 61.5°F16.4°C 57.9°F14.4°C 88% 4.6 mph E7.4 kmh E 5.8 mph9.3 kmh 31.83 in1077.9 mb - 0.00 in0.0 mm 0.00 in0.0 mm
10:45 AM 61.4°F16.3°C 57.8°F14.3°C 88% 3.5 mph E5.6 kmh E 4.6 mph7.4 kmh 31.83 in1077.9 mb - 0.00 in0.0 mm 0.00 in0.0 mm
10:50 AM 61.6°F16.4°C 58.0°F14.4°C 88% 3.5 mph E5.6 kmh E 4.6 mph7.4 kmh 31.83 in1077.9 mb - 0.00 in0.0 mm 0.00 in0.0 mm
10:55 AM 61.9°F16.6°C 58.0°F14.4°C 87% 3.5 mph ENE5.6 kmh ENE 3.5 mph5.6 kmh 31.83 in1077.9 mb - 0.00 in0.0 mm 0.00 in0.0 mm
11:00 AM 61.8°F16.6°C 57.9°F14.4°C 87% 4.6 mph E7.4 kmh E 5.8 mph9.3 kmh 31.83 in1077.9 mb - 0.00 in0.0 mm 0.00 in0.0 mm
11:10 AM 62.2°F16.8°C 58.3°F14.6°C 87% 4.6 mph E7.4 kmh E 5.8 mph9.3 kmh 31.83 in1077.9 mb - 0.00 in0.0 mm 0.00 in0.0 mm
11:15 AM 62.4°F16.9°C 58.1°F14.5°C 86% 3.5 mph NE5.6 kmh NE 4.6 mph7.4 kmh 31.83 in1077.9 mb - 0.00 in0.0 mm 0.00 in0.0 mm
11:20 AM 62.0°F16.7°C 58.1°F14.5°C 87% 4.6 mph E7.4 kmh E 4.6 mph7.4 kmh 31.83 in1077.9 mb - 0.00 in0.0 mm 0.00 in0.0 mm
11:25 AM 62.1°F16.7°C 58.2°F14.6°C 87% 4.6 mph E7.4 kmh E 4.6 mph7.4 kmh 31.83 in1077.9 mb - 0.00 in0.0 mm 0.00 in0.0 mm
11:30 AM 62.3°F16.8°C 58.4°F14.7°C 87% 3.5 mph E5.6 kmh E 4.6 mph7.4 kmh 31.83 in1077.9 mb - 0.00 in0.0 mm 0.00 in0.0 mm
11:35 AM 62.3°F16.8°C 58.0°F14.4°C 86% 3.5 mph E5.6 kmh E 5.8 mph9.3 kmh 31.83 in1077.9 mb - 0.00 in0.0 mm 0.00 in0.0 mm
11:40 AM 62.5°F16.9°C 58.2°F14.6°C 86% 3.5 mph E5.6 kmh E 3.5 mph5.6 kmh 31.83 in1077.9 mb - 0.00 in0.0 mm 0.00 in0.0 mm
11:45 AM 63.0°F17.2°C 58.4°F14.7°C 85% 3.5 mph E5.6 kmh E 5.8 mph9.3 kmh 31.83 in1077.9 mb - 0.00 in0.0 mm 0.00 in0.0 mm
11:50 AM 63.2°F17.3°C 58.6°F14.8°C 85% 3.5 mph NE5.6 kmh NE 4.6 mph7.4 kmh 31.83 in1077.9 mb - 0.00 in0.0 mm 0.00 in0.0 mm
11:55 AM 63.6°F17.6°C 58.7°F14.8°C 84% 3.5 mph E5.6 kmh E 4.6 mph7.4 kmh 31.83 in1077.9 mb - 0.00 in0.0 mm 0.00 in0.0 mm
12:00 PM 63.6°F17.6°C 59.0°F15.0°C 85% 3.5 mph E5.6 kmh E 5.8 mph9.3 kmh 31.83 in1077.9 mb - 0.00 in0.0 mm 0.00 in0.0 mm
12:10 PM 64.9°F18.3°C 59.6°F15.3°C 83% 4.6 mph NE7.4 kmh NE 6.9 mph11.1 kmh 31.83 in1077.9 mb - 0.00 in0.0 mm 0.00 in0.0 mm
12:15 PM 65.4°F18.6°C 59.4°F15.2°C 81% 3.5 mph ENE5.6 kmh ENE 2.3 mph3.7 kmh 31.83 in1077.9 mb - 0.00 in0.0 mm 0.00 in0.0 mm
12:20 PM 65.3°F18.5°C 59.6°F15.3°C 82% 4.6 mph E7.4 kmh E 5.8 mph9.3 kmh 31.83 in1077.9 mb - 0.00 in0.0 mm 0.00 in0.0 mm
12:25 PM 65.6°F18.7°C 59.9°F15.5°C 82% 3.5 mph E5.6 kmh E 4.6 mph7.4 kmh 31.83 in1077.9 mb - 0.00 in0.0 mm 0.00 in0.0 mm
12:30 PM 65.7°F18.7°C 60.1°F15.6°C 82% 3.5 mph N5.6 kmh N 6.9 mph11.1 kmh 31.83 in1077.9 mb - 0.00 in0.0 mm 0.00 in0.0 mm
12:35 PM 65.8°F18.8°C 60.5°F15.8°C 83% 3.5 mph ENE5.6 kmh ENE 3.5 mph5.6 kmh 31.83 in1077.9 mb - 0.00 in0.0 mm 0.00 in0.0 mm
12:40 PM 65.5°F18.6°C 59.5°F15.3°C 81% 4.6 mph E7.4 kmh E 5.8 mph9.3 kmh 31.83 in1077.9 mb - 0.00 in0.0 mm 0.00 in0.0 mm
12:45 PM 65.3°F18.5°C 59.6°F15.3°C 82% 2.3 mph E3.7 kmh E 5.8 mph9.3 kmh 31.83 in1077.9 mb - 0.00 in0.0 mm 0.00 in0.0 mm
12:50 PM 65.2°F18.4°C 59.5°F15.3°C 82% 3.5 mph NE5.6 kmh NE 3.5 mph5.6 kmh 31.83 in1077.9 mb - 0.00 in0.0 mm 0.00 in0.0 mm
12:55 PM 65.4°F18.6°C 59.7°F15.4°C 82% 4.6 mph NNE7.4 kmh NNE 8.1 mph13.0 kmh 31.83 in1077.9 mb - 0.00 in0.0 mm 0.00 in0.0 mm
01:00 PM 66.0°F18.9°C 60.3°F15.7°C 82% 4.6 mph NE7.4 kmh NE 4.6 mph7.4 kmh 31.83 in1077.9 mb - 0.00 in0.0 mm 0.00 in0.0 mm
01:10 PM 67.1°F19.5°C 60.7°F15.9°C 80% 4.6 mph NE7.4 kmh NE 5.8 mph9.3 kmh 31.83 in1077.9 mb - 0.00 in0.0 mm 0.00 in0.0 mm
01:15 PM 67.9°F19.9°C 61.1°F16.2°C 79% 3.5 mph E5.6 kmh E 4.6 mph7.4 kmh 31.83 in1077.9 mb - 0.00 in0.0 mm 0.00 in0.0 mm
01:20 PM 68.0°F20.0°C 61.2°F16.2°C 79% 3.5 mph NE5.6 kmh NE 4.6 mph7.4 kmh 31.83 in1077.9 mb - 0.00 in0.0 mm 0.00 in0.0 mm
01:25 PM 68.4°F20.2°C 61.3°F16.3°C 78% 4.6 mph NE7.4 kmh NE 5.8 mph9.3 kmh 31.83 in1077.9 mb - 0.00 in0.0 mm 0.00 in0.0 mm
01:30 PM 68.6°F20.3°C 61.4°F16.3°C 78% 3.5 mph E5.6 kmh E 4.6 mph7.4 kmh 31.83 in1077.9 mb - 0.00 in0.0 mm 0.00 in0.0 mm
01:35 PM 68.3°F20.2°C 60.8°F16.0°C 77% 3.5 mph NE5.6 kmh NE 4.6 mph7.4 kmh 31.83 in1077.9 mb - 0.00 in0.0 mm 0.00 in0.0 mm
01:40 PM 68.2°F20.1°C 61.1°F16.2°C 78% 2.3 mph NE3.7 kmh NE 3.5 mph5.6 kmh 31.83 in1077.9 mb - 0.00 in0.0 mm 0.00 in0.0 mm
01:45 PM 69.3°F20.7°C 62.1°F16.7°C 78% 3.5 mph ENE5.6 kmh ENE 3.5 mph5.6 kmh 31.83 in1077.9 mb - 0.00 in0.0 mm 0.00 in0.0 mm
01:50 PM 68.2°F20.1°C 61.1°F16.2°C 78% 3.5 mph ENE5.6 kmh ENE 4.6 mph7.4 kmh 31.83 in1077.9 mb - 0.00 in0.0 mm 0.00 in0.0 mm
01:55 PM 68.5°F20.3°C 61.4°F16.3°C 78% 3.5 mph NE5.6 kmh NE 3.5 mph5.6 kmh 31.83 in1077.9 mb - 0.00 in0.0 mm 0.00 in0.0 mm
02:00 PM 68.7°F20.4°C 61.6°F16.4°C 78% 3.5 mph NE5.6 kmh NE 3.5 mph5.6 kmh 31.83 in1077.9 mb - 0.00 in0.0 mm 0.00 in0.0 mm
02:10 PM 68.5°F20.3°C 61.3°F16.3°C 78% 3.5 mph E5.6 kmh E 3.5 mph5.6 kmh 31.83 in1077.9 mb - 0.00 in0.0 mm 0.00 in0.0 mm
02:15 PM 69.3°F20.7°C 61.8°F16.6°C 77% 3.5 mph E5.6 kmh E 3.5 mph5.6 kmh 31.83 in1077.9 mb - 0.00 in0.0 mm 0.00 in0.0 mm
02:20 PM 70.4°F21.3°C 62.8°F17.1°C 77% 3.5 mph NE5.6 kmh NE 4.6 mph7.4 kmh 31.83 in1077.9 mb - 0.00 in0.0 mm 0.00 in0.0 mm
02:25 PM 69.6°F20.9°C 62.0°F16.7°C 77% 3.5 mph E5.6 kmh E 3.5 mph5.6 kmh 31.83 in1077.9 mb - 0.00 in0.0 mm 0.00 in0.0 mm
02:30 PM 69.6°F20.9°C 62.0°F16.7°C 77% 3.5 mph NE5.6 kmh NE 5.8 mph9.3 kmh 31.83 in1077.9 mb - 0.00 in0.0 mm 0.00 in0.0 mm
02:35 PM 69.5°F20.8°C 62.0°F16.7°C 77% 2.3 mph ENE3.7 kmh ENE 4.6 mph7.4 kmh 31.83 in1077.9 mb - 0.00 in0.0 mm 0.00 in0.0 mm
02:40 PM 69.6°F20.9°C 61.7°F16.5°C 76% 2.3 mph NNE3.7 kmh NNE 4.6 mph7.4 kmh 31.83 in1077.9 mb - 0.00 in0.0 mm 0.00 in0.0 mm
02:45 PM 69.2°F20.7°C 61.7°F16.5°C 77% 3.5 mph E5.6 kmh E 3.5 mph5.6 kmh 31.83 in1077.9 mb - 0.00 in0.0 mm 0.00 in0.0 mm
02:50 PM 69.0°F20.6°C 61.5°F16.4°C 77% 3.5 mph E5.6 kmh E 3.5 mph5.6 kmh 31.83 in1077.9 mb - 0.00 in0.0 mm 0.00 in0.0 mm
02:55 PM 68.6°F20.3°C 61.5°F16.4°C 78% 3.5 mph E5.6 kmh E 5.8 mph9.3 kmh 31.83 in1077.9 mb - 0.00 in0.0 mm 0.00 in0.0 mm
03:00 PM 69.3°F20.7°C 61.8°F16.6°C 77% 3.5 mph NE5.6 kmh NE 3.5 mph5.6 kmh 31.83 in1077.9 mb - 0.00 in0.0 mm 0.00 in0.0 mm
03:10 PM 70.5°F21.4°C 62.2°F16.8°C 75% 3.5 mph E5.6 kmh E 3.5 mph5.6 kmh 31.83 in1077.9 mb - 0.00 in0.0 mm 0.00 in0.0 mm
03:15 PM 70.7°F21.5°C 62.8°F17.1°C 76% 3.5 mph E5.6 kmh E 3.5 mph5.6 kmh 31.83 in1077.9 mb - 0.00 in0.0 mm 0.00 in0.0 mm
03:20 PM 70.3°F21.3°C 62.0°F16.7°C 75% 3.5 mph E5.6 kmh E 4.6 mph7.4 kmh 31.83 in1077.9 mb - 0.00 in0.0 mm 0.00 in0.0 mm
03:25 PM 71.3°F21.8°C 62.9°F17.2°C 75% 3.5 mph NE5.6 kmh NE 3.5 mph5.6 kmh 31.83 in1077.9 mb - 0.00 in0.0 mm 0.00 in0.0 mm
03:30 PM 70.6°F21.4°C 62.3°F16.8°C 75% 3.5 mph ENE5.6 kmh ENE 4.6 mph7.4 kmh 31.83 in1077.9 mb - 0.00 in0.0 mm 0.00 in0.0 mm
03:35 PM 70.1°F21.2°C 62.2°F16.8°C 76% 3.5 mph ENE5.6 kmh ENE 3.5 mph5.6 kmh 31.83 in1077.9 mb - 0.00 in0.0 mm 0.00 in0.0 mm
03:40 PM 70.2°F21.2°C 61.9°F16.6°C 75% 4.6 mph E7.4 kmh E 4.6 mph7.4 kmh 31.83 in1077.9 mb - 0.00 in0.0 mm 0.00 in0.0 mm
03:45 PM 70.2°F21.2°C 61.9°F16.6°C 75% 4.6 mph E7.4 kmh E 4.6 mph7.4 kmh 31.83 in1077.9 mb - 0.00 in0.0 mm 0.00 in0.0 mm
03:50 PM 69.6°F20.9°C 62.0°F16.7°C 77% 3.5 mph E5.6 kmh E 4.6 mph7.4 kmh 31.83 in1077.9 mb - 0.00 in0.0 mm 0.00 in0.0 mm
03:55 PM 68.9°F20.5°C 61.4°F16.3°C 77% 3.5 mph E5.6 kmh E 3.5 mph5.6 kmh 31.83 in1077.9 mb - 0.00 in0.0 mm 0.00 in0.0 mm
04:00 PM 68.4°F20.2°C 61.3°F16.3°C 78% 4.6 mph ENE7.4 kmh ENE 4.6 mph7.4 kmh 31.83 in1077.9 mb - 0.00 in0.0 mm 0.00 in0.0 mm
04:10 PM 68.6°F20.3°C 61.4°F16.3°C 78% 3.5 mph E5.6 kmh E 4.6 mph7.4 kmh 31.83 in1077.9 mb - 0.00 in0.0 mm 0.00 in0.0 mm
04:15 PM 68.2°F20.1°C 61.0°F16.1°C 78% 4.6 mph ENE7.4 kmh ENE 5.8 mph9.3 kmh 31.83 in1077.9 mb - 0.00 in0.0 mm 0.00 in0.0 mm
04:20 PM 68.4°F20.2°C 61.3°F16.3°C 78% 4.6 mph ENE7.4 kmh ENE 5.8 mph9.3 kmh 31.83 in1077.9 mb - 0.00 in0.0 mm 0.00 in0.0 mm
04:25 PM 68.4°F20.2°C 61.3°F16.3°C 78% 3.5 mph NE5.6 kmh NE 3.5 mph5.6 kmh 31.83 in1077.9 mb - 0.00 in0.0 mm 0.00 in0.0 mm
04:30 PM 68.7°F20.4°C 61.6°F16.4°C 78% 3.5 mph NNE5.6 kmh NNE 4.6 mph7.4 kmh 31.83 in1077.9 mb - 0.00 in0.0 mm 0.00 in0.0 mm
04:35 PM 68.2°F20.1°C 61.1°F16.2°C 78% 4.6 mph E7.4 kmh E 5.8 mph9.3 kmh 31.83 in1077.9 mb - 0.00 in0.0 mm 0.00 in0.0 mm
04:40 PM 68.4°F20.2°C 61.3°F16.3°C 78% 3.5 mph E5.6 kmh E 3.5 mph5.6 kmh 31.83 in1077.9 mb - 0.00 in0.0 mm 0.00 in0.0 mm
04:45 PM 69.4°F20.8°C 61.5°F16.4°C 76% 3.5 mph E5.6 kmh E 5.8 mph9.3 kmh 31.83 in1077.9 mb - 0.00 in0.0 mm 0.00 in0.0 mm
04:50 PM 69.3°F20.7°C 61.8°F16.6°C 77% 4.6 mph E7.4 kmh E 4.6 mph7.4 kmh 31.83 in1077.9 mb - 0.00 in0.0 mm 0.00 in0.0 mm
04:55 PM 68.5°F20.3°C 61.3°F16.3°C 78% 3.5 mph ENE5.6 kmh ENE 3.5 mph5.6 kmh 31.83 in1077.9 mb - 0.00 in0.0 mm 0.00 in0.0 mm
05:00 PM 69.1°F20.6°C 61.9°F16.6°C 78% 4.6 mph E7.4 kmh E 5.8 mph9.3 kmh 31.83 in1077.9 mb - 0.00 in0.0 mm 0.00 in0.0 mm
05:10 PM 68.8°F20.4°C 61.3°F16.3°C 77% 2.3 mph E3.7 kmh E 3.5 mph5.6 kmh 31.83 in1077.9 mb - 0.00 in0.0 mm 0.00 in0.0 mm
05:15 PM 69.7°F20.9°C 62.2°F16.8°C 77% 5.8 mph E9.3 kmh E 5.8 mph9.3 kmh 31.83 in1077.9 mb - 0.00 in0.0 mm 0.00 in0.0 mm
05:20 PM 69.9°F21.1°C 62.0°F16.7°C 76% 4.6 mph E7.4 kmh E 5.8 mph9.3 kmh 31.83 in1077.9 mb - 0.00 in0.0 mm 0.00 in0.0 mm
05:25 PM 70.2°F21.2°C 61.9°F16.6°C 75% 5.8 mph ESE9.3 kmh ESE 6.9 mph11.1 kmh 31.83 in1077.9 mb - 0.00 in0.0 mm 0.00 in0.0 mm
05:30 PM 70.1°F21.2°C 62.2°F16.8°C 76% 5.8 mph E9.3 kmh E 6.9 mph11.1 kmh 31.83 in1077.9 mb - 0.00 in0.0 mm 0.00 in0.0 mm
05:35 PM 69.9°F21.1°C 62.0°F16.7°C 76% 4.6 mph E7.4 kmh E 5.8 mph9.3 kmh 31.83 in1077.9 mb - 0.00 in0.0 mm 0.00 in0.0 mm
05:40 PM 69.8°F21.0°C 61.9°F16.6°C 76% 5.8 mph E9.3 kmh E 5.8 mph9.3 kmh 31.83 in1077.9 mb - 0.00 in0.0 mm 0.00 in0.0 mm
05:45 PM 70.3°F21.3°C 62.4°F16.9°C 76% 3.5 mph ESE5.6 kmh ESE 5.8 mph9.3 kmh 31.83 in1077.9 mb - 0.00 in0.0 mm 0.00 in0.0 mm
05:50 PM 70.7°F21.5°C 62.4°F16.9°C 75% 3.5 mph E5.6 kmh E 3.5 mph5.6 kmh 31.83 in1077.9 mb - 0.00 in0.0 mm 0.00 in0.0 mm
05:55 PM 70.7°F21.5°C 62.4°F16.9°C 75% 4.6 mph E7.4 kmh E 4.6 mph7.4 kmh 31.83 in1077.9 mb - 0.00 in0.0 mm 0.00 in0.0 mm
06:00 PM 70.6°F21.4°C 61.9°F16.6°C 74% 4.6 mph E7.4 kmh E 6.9 mph11.1 kmh 31.83 in1077.9 mb - 0.00 in0.0 mm 0.00 in0.0 mm
06:10 PM 70.6°F21.4°C 62.3°F16.8°C 75% 4.6 mph E7.4 kmh E 4.6 mph7.4 kmh 31.83 in1077.9 mb - 0.00 in0.0 mm 0.00 in0.0 mm
06:15 PM 71.4°F21.9°C 62.7°F17.1°C 74% 4.6 mph E7.4 kmh E 5.8 mph9.3 kmh 31.83 in1077.9 mb - 0.00 in0.0 mm 0.00 in0.0 mm
06:20 PM 70.6°F21.4°C 62.3°F16.8°C 75% 3.5 mph E5.6 kmh E 4.6 mph7.4 kmh 31.83 in1077.9 mb - 0.00 in0.0 mm 0.00 in0.0 mm
06:25 PM 70.4°F21.3°C 62.5°F16.9°C 76% 3.5 mph E5.6 kmh E 4.6 mph7.4 kmh 31.83 in1077.9 mb - 0.00 in0.0 mm 0.00 in0.0 mm
06:30 PM 69.6°F20.9°C 61.7°F16.5°C 76% 4.6 mph E7.4 kmh E 6.9 mph11.1 kmh 31.83 in1077.9 mb - 0.00 in0.0 mm 0.00 in0.0 mm
06:35 PM 70.4°F21.3°C 62.1°F16.7°C 75% 4.6 mph E7.4 kmh E 6.9 mph11.1 kmh 31.83 in1077.9 mb - 0.00 in0.0 mm 0.00 in0.0 mm
06:40 PM 70.0°F21.1°C 61.7°F16.5°C 75% 4.6 mph E7.4 kmh E 5.8 mph9.3 kmh 31.83 in1077.9 mb - 0.00 in0.0 mm 0.00 in0.0 mm
06:45 PM 70.0°F21.1°C 61.7°F16.5°C 75% 3.5 mph E5.6 kmh E 5.8 mph9.3 kmh 31.83 in1077.9 mb - 0.00 in0.0 mm 0.00 in0.0 mm
06:50 PM 69.8°F21.0°C 61.5°F16.4°C 75% 4.6 mph E7.4 kmh E 5.8 mph9.3 kmh 31.83 in1077.9 mb - 0.00 in0.0 mm 0.00 in0.0 mm
06:55 PM 70.5°F21.4°C 62.1°F16.7°C 75% 3.5 mph E5.6 kmh E 5.8 mph9.3 kmh 31.83 in1077.9 mb - 0.00 in0.0 mm 0.00 in0.0 mm
07:00 PM 69.8°F21.0°C 61.9°F16.6°C 76% 3.5 mph E5.6 kmh E 3.5 mph5.6 kmh 31.83 in1077.9 mb - 0.00 in0.0 mm 0.00 in0.0 mm
07:10 PM 69.5°F20.8°C 62.0°F16.7°C 77% 4.6 mph E7.4 kmh E 4.6 mph7.4 kmh 31.83 in1077.9 mb - 0.00 in0.0 mm 0.00 in0.0 mm
07:15 PM 68.1°F20.1°C 62.8°F17.1°C 83% 2.3 mph NNE3.7 kmh NNE 2.3 mph3.7 kmh 31.83 in1077.9 mb - 0.00 in0.0 mm 0.00 in0.0 mm
07:20 PM 67.7°F19.8°C 62.0°F16.7°C 82% 2.3 mph E3.7 kmh E 2.3 mph3.7 kmh 31.83 in1077.9 mb - 0.00 in0.0 mm 0.00 in0.0 mm
07:25 PM 68.0°F20.0°C 62.7°F17.1°C 83% 1.2 mph E1.9 kmh E 2.3 mph3.7 kmh 31.83 in1077.9 mb - 0.00 in0.0 mm 0.00 in0.0 mm
07:30 PM 68.1°F20.1°C 62.4°F16.9°C 82% 2.3 mph NE3.7 kmh NE 4.6 mph7.4 kmh 31.83 in1077.9 mb - 0.00 in0.0 mm 0.00 in0.0 mm
07:35 PM 67.9°F19.9°C 62.6°F17.0°C 83% 1.2 mph E1.9 kmh E 1.2 mph1.9 kmh 31.83 in1077.9 mb - 0.00 in0.0 mm 0.00 in0.0 mm
07:40 PM 67.8°F19.9°C 62.5°F16.9°C 83% 1.2 mph ESE1.9 kmh ESE 1.2 mph1.9 kmh 31.83 in1077.9 mb - 0.00 in0.0 mm 0.00 in0.0 mm
07:45 PM 67.7°F19.8°C 62.3°F16.8°C 83% 2.3 mph SE3.7 kmh SE 4.6 mph7.4 kmh 31.83 in1077.9 mb - 0.00 in0.0 mm 0.00 in0.0 mm
07:50 PM 67.7°F19.8°C 62.4°F16.9°C 83% Calm Calm 1.2 mph1.9 kmh 31.83 in1077.9 mb - 0.00 in0.0 mm 0.00 in0.0 mm
07:55 PM 68.4°F20.2°C 63.0°F17.2°C 83% 1.2 mph S1.9 kmh S 2.3 mph3.7 kmh 31.83 in1077.9 mb - 0.00 in0.0 mm 0.00 in0.0 mm
08:00 PM 69.1°F20.6°C 63.4°F17.4°C 82% 1.2 mph S1.9 kmh S 3.5 mph5.6 kmh 31.83 in1077.9 mb - 0.00 in0.0 mm 0.00 in0.0 mm
08:10 PM 68.4°F20.2°C 63.0°F17.2°C 83% 1.2 mph S1.9 kmh S 2.3 mph3.7 kmh 31.83 in1077.9 mb - 0.00 in0.0 mm 0.00 in0.0 mm
08:15 PM 67.0°F19.4°C 62.3°F16.8°C 85% 2.3 mph S3.7 kmh S 3.5 mph5.6 kmh 31.83 in1077.9 mb - 0.00 in0.0 mm 0.00 in0.0 mm
08:20 PM 67.5°F19.7°C 62.5°F16.9°C 84% Calm Calm -- 31.83 in1077.9 mb - 0.00 in0.0 mm 0.00 in0.0 mm
08:25 PM 66.5°F19.2°C 62.2°F16.8°C 86% 1.2 mph SE1.9 kmh SE 1.2 mph1.9 kmh 31.83 in1077.9 mb - 0.00 in0.0 mm 0.00 in0.0 mm
08:30 PM 66.6°F19.2°C 62.3°F16.8°C 86% Calm Calm 1.2 mph1.9 kmh 31.83 in1077.9 mb - 0.00 in0.0 mm 0.00 in0.0 mm
08:35 PM 66.1°F18.9°C 61.8°F16.6°C 86% Calm Calm -- 31.83 in1077.9 mb - 0.00 in0.0 mm 0.00 in0.0 mm
08:40 PM 65.7°F18.7°C 61.4°F16.3°C 86% Calm Calm -- 31.83 in1077.9 mb - 0.00 in0.0 mm 0.00 in0.0 mm
08:45 PM 65.3°F18.5°C 61.0°F16.1°C 86% 1.2 mph E1.9 kmh E 1.2 mph1.9 kmh 31.83 in1077.9 mb - 0.00 in0.0 mm 0.00 in0.0 mm
08:50 PM 65.0°F18.3°C 61.0°F16.1°C 87% 1.2 mph E1.9 kmh E 1.2 mph1.9 kmh 31.83 in1077.9 mb - 0.00 in0.0 mm 0.00 in0.0 mm
08:55 PM 64.7°F18.2°C 61.0°F16.1°C 88% 1.2 mph E1.9 kmh E 1.2 mph1.9 kmh 31.83 in1077.9 mb - 0.00 in0.0 mm 0.00 in0.0 mm
09:00 PM 64.4°F18.0°C 60.7°F15.9°C 88% 1.2 mph E1.9 kmh E 1.2 mph1.9 kmh 31.83 in1077.9 mb - 0.00 in0.0 mm 0.00 in0.0 mm
09:10 PM 63.9°F17.7°C 60.6°F15.9°C 89% 2.3 mph ESE3.7 kmh ESE 2.3 mph3.7 kmh 31.83 in1077.9 mb - 0.00 in0.0 mm 0.00 in0.0 mm
09:15 PM 63.9°F17.7°C 60.6°F15.9°C 89% 2.3 mph E3.7 kmh E 2.3 mph3.7 kmh 31.83 in1077.9 mb - 0.00 in0.0 mm 0.00 in0.0 mm
09:20 PM 63.9°F17.7°C 60.6°F15.9°C 89% 2.3 mph E3.7 kmh E 2.3 mph3.7 kmh 31.83 in1077.9 mb - 0.00 in0.0 mm 0.00 in0.0 mm
09:25 PM 63.9°F17.7°C 60.6°F15.9°C 89% 2.3 mph E3.7 kmh E 1.2 mph1.9 kmh 31.83 in1077.9 mb - 0.00 in0.0 mm 0.00 in0.0 mm
09:30 PM 63.6°F17.6°C 60.2°F15.7°C 89% 1.2 mph E1.9 kmh E 1.2 mph1.9 kmh 31.83 in1077.9 mb - 0.00 in0.0 mm 0.00 in0.0 mm
09:35 PM 63.3°F17.4°C 60.0°F15.6°C 89% 1.2 mph ENE1.9 kmh ENE 1.2 mph1.9 kmh 31.83 in1077.9 mb - 0.00 in0.0 mm 0.00 in0.0 mm
09:40 PM 63.2°F17.3°C 59.9°F15.5°C 89% 1.2 mph E1.9 kmh E 1.2 mph1.9 kmh 31.83 in1077.9 mb - 0.00 in0.0 mm 0.00 in0.0 mm
09:45 PM 63.0°F17.2°C 59.7°F15.4°C 89% 1.2 mph E1.9 kmh E 1.2 mph1.9 kmh 31.83 in1077.9 mb - 0.00 in0.0 mm 0.00 in0.0 mm
09:50 PM 62.6°F17.0°C 59.3°F15.2°C 89% 1.2 mph E1.9 kmh E 1.2 mph1.9 kmh 31.83 in1077.9 mb - 0.00 in0.0 mm 0.00 in0.0 mm
09:55 PM 62.5°F16.9°C 59.5°F15.3°C 90% 1.2 mph E1.9 kmh E 1.2 mph1.9 kmh 31.83 in1077.9 mb - 0.00 in0.0 mm 0.00 in0.0 mm
10:00 PM 62.4°F16.9°C 59.4°F15.2°C 90% 2.3 mph E3.7 kmh E 2.3 mph3.7 kmh 31.83 in1077.9 mb - 0.00 in0.0 mm 0.00 in0.0 mm
10:10 PM 62.4°F16.9°C 59.4°F15.2°C 90% 2.3 mph E3.7 kmh E 2.3 mph3.7 kmh 31.83 in1077.9 mb - 0.00 in0.0 mm 0.00 in0.0 mm
10:15 PM 62.4°F16.9°C 59.4°F15.2°C 90% 1.2 mph E1.9 kmh E 1.2 mph1.9 kmh 31.83 in1077.9 mb - 0.00 in0.0 mm 0.00 in0.0 mm
10:25 PM 62.9°F17.2°C 59.9°F15.5°C 90% 3.5 mph E5.6 kmh E 3.5 mph5.6 kmh 31.83 in1077.9 mb - 0.00 in0.0 mm 0.00 in0.0 mm
10:30 PM 63.3°F17.4°C 60.3°F15.7°C 90% 3.5 mph E5.6 kmh E 3.5 mph5.6 kmh 31.83 in1077.9 mb - 0.00 in0.0 mm 0.00 in0.0 mm
10:35 PM 63.5°F17.5°C 60.2°F15.7°C 89% 3.5 mph E5.6 kmh E 3.5 mph5.6 kmh 31.83 in1077.9 mb - 0.00 in0.0 mm 0.00 in0.0 mm
10:40 PM 63.7°F17.6°C 60.4°F15.8°C 89% 3.5 mph E5.6 kmh E 2.3 mph3.7 kmh 31.83 in1077.9 mb - 0.00 in0.0 mm 0.00 in0.0 mm
10:45 PM 63.7°F17.6°C 60.4°F15.8°C 89% 2.3 mph E3.7 kmh E 4.6 mph7.4 kmh 31.83 in1077.9 mb - 0.00 in0.0 mm 0.00 in0.0 mm
10:50 PM 63.5°F17.5°C 60.2°F15.7°C 89% 2.3 mph NE3.7 kmh NE 3.5 mph5.6 kmh 31.83 in1077.9 mb - 0.00 in0.0 mm 0.00 in0.0 mm
10:55 PM 63.3°F17.4°C 60.0°F15.6°C 89% 1.2 mph E1.9 kmh E 1.2 mph1.9 kmh 31.83 in1077.9 mb - 0.00 in0.0 mm 0.00 in0.0 mm
11:00 PM 63.0°F17.2°C 59.7°F15.4°C 89% 1.2 mph NE1.9 kmh NE 1.2 mph1.9 kmh 31.83 in1077.9 mb - 0.00 in0.0 mm 0.00 in0.0 mm
11:10 PM 62.4°F16.9°C 59.4°F15.2°C 90% 1.2 mph E1.9 kmh E 2.3 mph3.7 kmh 31.83 in1077.9 mb - 0.00 in0.0 mm 0.00 in0.0 mm
11:15 PM 62.1°F16.7°C 59.4°F15.2°C 91% 1.2 mph E1.9 kmh E 1.2 mph1.9 kmh 31.83 in1077.9 mb - 0.00 in0.0 mm 0.00 in0.0 mm
11:20 PM 61.9°F16.6°C 59.5°F15.3°C 92% 1.2 mph E1.9 kmh E 1.2 mph1.9 kmh 31.83 in1077.9 mb - 0.00 in0.0 mm 0.00 in0.0 mm
11:25 PM 61.6°F16.4°C 59.3°F15.2°C 92% 1.2 mph E1.9 kmh E 2.3 mph3.7 kmh 31.83 in1077.9 mb - 0.00 in0.0 mm 0.00 in0.0 mm
11:30 PM 61.4°F16.3°C 59.1°F15.1°C 92% 1.2 mph NNE1.9 kmh NNE 2.3 mph3.7 kmh 31.83 in1077.9 mb - 0.00 in0.0 mm 0.00 in0.0 mm
11:35 PM 61.2°F16.2°C 59.1°F15.1°C 93% 4.6 mph N7.4 kmh N 4.6 mph7.4 kmh 31.83 in1077.9 mb - 0.00 in0.0 mm 0.00 in0.0 mm
11:40 PM 60.6°F15.9°C 58.8°F14.9°C 94% 4.6 mph N7.4 kmh N 4.6 mph7.4 kmh 31.83 in1077.9 mb - 0.00 in0.0 mm 0.00 in0.0 mm
11:45 PM 60.5°F15.8°C 59.0°F15.0°C 95% 4.6 mph N7.4 kmh N 4.6 mph7.4 kmh 31.83 in1077.9 mb - 0.00 in0.0 mm 0.00 in0.0 mm
11:50 PM 60.5°F15.8°C 59.0°F15.0°C 95% 3.5 mph N5.6 kmh N 4.6 mph7.4 kmh 31.83 in1077.9 mb - 0.00 in0.0 mm 0.00 in0.0 mm
11:55 PM 60.3°F15.7°C 58.8°F14.9°C 95% 3.5 mph N5.6 kmh N 3.5 mph5.6 kmh 31.83 in1077.9 mb - 0.00 in0.0 mm 0.00 in0.0 mm